KOCW/OCW METAR and TAF weather

Enter ICAO airport designator
Station Type Date Time Source
KOCW METAR 2020/03/31 14:15 UTC NOAA

KOCW 311415Z AUTO 05005KT 10SM -RA SCT040 BKN090 OVC110 12/06 A2996 RMK AO2 T01170060


Station Type Date Time Source
KOCW Decoded METAR 2020/03/31 14:15 UTC NOAA

Washington, Warren Field Airport, NC, United States (KOCW) 35-34-14N 077-02-59W
Mar 31, 2020 - 10:15 AM EDT / 2020.03.31 1415 UTC
Wind: from the NE (050 degrees) at 6 MPH (5 KT):0
Visibility: 10 mile(s):0
Sky conditions: overcast
Weather: light rain
Temperature: 53.1 F (11.7 C)
Dew Point: 42.8 F (6.0 C)
Relative Humidity: 68%
Pressure (altimeter): 29.96 in. Hg (1014 hPa)
ob: KOCW 311415Z AUTO 05005KT 10SM -RA SCT040 BKN090 OVC110 12/06 A2996 RMK AO2 T01170060
cycle: 14

Station Type Date Time Source
KOCW TAF UTC NOAA

Error!

Example: see airport list